createdAt,value
2019-04-05T00:01:37.238Z,56.90
2019-04-05T00:04:18.030Z,57.50
2019-04-05T00:06:58.849Z,57.10
2019-04-05T00:09:39.576Z,58.30
2019-04-05T00:12:20.541Z,56.10
2019-04-05T00:15:14.263Z,57.10
2019-04-05T00:17:43.197Z,57.30
2019-04-05T00:20:24.045Z,57.10
2019-04-05T00:23:04.593Z,60.50
2019-04-05T00:25:44.953Z,60.00
2019-04-05T00:28:25.522Z,57.60
2019-04-05T00:31:06.463Z,60.50
2019-04-05T00:33:47.384Z,64.20
2019-04-05T00:36:27.810Z,65.80
2019-04-05T00:39:07.477Z,65.50
2019-04-05T00:41:55.338Z,64.60
2019-04-05T00:44:34.153Z,66.50
2019-04-05T00:47:21.940Z,66.50
2019-04-05T00:50:09.882Z,66.80
2019-04-05T00:52:57.672Z,66.70
2019-04-05T00:55:45.437Z,67.70
2019-04-05T00:58:33.226Z,69.20
2019-04-05T01:01:20.993Z,66.50
2019-04-05T01:04:08.780Z,64.50
2019-04-05T01:06:56.553Z,64.60
2019-04-05T01:09:44.336Z,65.60
2019-04-05T01:12:52.109Z,65.80
2019-04-05T01:15:41.299Z,65.00
2019-04-05T01:18:29.540Z,63.40
2019-04-05T01:21:38.090Z,63.60
2019-04-05T01:27:34.808Z,62.40
2019-04-05T01:30:22.577Z,61.90
2019-04-05T01:33:10.432Z,61.90
2019-04-05T01:35:58.239Z,62.30
2019-04-05T01:38:46.068Z,62.90
2019-04-05T01:41:26.285Z,62.30
2019-04-05T01:44:07.028Z,61.40
2019-04-05T01:46:47.653Z,60.20
2019-04-05T01:49:28.306Z,58.90
2019-04-05T01:52:09.137Z,59.10
2019-04-05T01:54:50.001Z,60.50
2019-04-05T01:57:31.057Z,63.10
2019-04-05T02:00:12.026Z,62.30
2019-04-05T02:02:52.478Z,60.00
2019-04-05T02:05:33.333Z,56.30
2019-04-05T02:08:14.376Z,52.20
2019-04-05T02:10:55.233Z,50.90
2019-04-05T02:13:36.454Z,53.60
2019-04-05T02:16:17.853Z,56.10
2019-04-05T02:18:58.731Z,57.90
2019-04-05T02:21:39.212Z,55.40
2019-04-05T02:24:20.150Z,57.20
2019-04-05T02:27:00.713Z,59.20
2019-04-05T02:29:41.557Z,57.30
2019-04-05T02:32:22.399Z,57.20
2019-04-05T02:35:02.931Z,57.00
2019-04-05T02:37:43.604Z,56.40
2019-04-05T02:40:24.106Z,58.30
2019-04-05T02:43:04.632Z,60.20
2019-04-05T02:45:45.601Z,61.60
2019-04-05T02:48:26.246Z,61.80
2019-04-05T02:51:07.241Z,63.60
2019-04-05T02:53:48.112Z,66.70
2019-04-05T02:56:29.009Z,67.80
2019-04-05T02:59:09.857Z,66.80
2019-04-05T03:01:50.583Z,68.40
2019-04-05T03:04:31.493Z,70.60
2019-04-05T03:07:12.026Z,71.70
2019-04-05T03:09:52.394Z,71.70
2019-04-05T03:12:33.395Z,72.50
2019-04-05T03:15:13.933Z,70.60
2019-04-05T03:17:55.020Z,69.60
2019-04-05T03:20:36.021Z,72.10
2019-04-05T03:23:16.758Z,73.70
2019-04-05T03:25:57.742Z,76.40
2019-04-05T03:28:38.487Z,80.00
2019-04-05T03:31:24.460Z,83.00
2019-04-05T03:34:01.839Z,82.30
2019-04-05T03:36:42.880Z,82.60
2019-04-05T03:39:23.818Z,85.30
2019-04-05T03:42:04.497Z,85.10
2019-04-05T03:44:45.529Z,84.80
2019-04-05T03:47:26.262Z,85.00
2019-04-05T03:50:06.825Z,86.20
2019-04-05T03:52:47.709Z,84.50
2019-04-05T03:55:28.478Z,84.30
2019-04-05T03:58:09.250Z,87.10
2019-04-05T04:00:50.102Z,87.50
2019-04-05T04:03:30.773Z,90.10
2019-04-05T04:06:58.806Z,90.30
2019-04-05T04:09:27.582Z,90.60
2019-04-05T04:11:56.181Z,90.60
2019-04-05T04:14:24.717Z,90.70
2019-04-05T04:17:10.999Z,90.60
2019-04-05T04:19:25.234Z,91.10
2019-04-05T04:22:13.550Z,90.60
2019-04-05T04:24:42.616Z,90.20
2019-04-05T04:27:12.300Z,88.00
2019-04-05T04:29:41.501Z,87.40
2019-04-05T04:32:09.921Z,86.10
2019-04-05T04:34:38.708Z,86.40
2019-04-05T04:37:07.271Z,88.30
2019-04-05T04:39:36.632Z,85.00
2019-04-05T04:42:05.789Z,87.10
2019-04-05T04:44:34.222Z,88.80
2019-04-05T04:47:02.664Z,87.80
2019-04-05T04:49:32.228Z,86.40
2019-04-05T04:52:01.212Z,88.20
2019-04-05T04:54:29.708Z,90.60
2019-04-05T04:56:58.343Z,91.00
2019-04-05T04:59:26.913Z,91.10
2019-04-05T05:01:55.638Z,90.40
2019-04-05T05:04:24.357Z,90.20
2019-04-05T05:06:53.220Z,90.60
2019-04-05T05:09:21.731Z,91.10
2019-04-05T05:11:50.672Z,91.10
2019-04-05T05:14:19.360Z,90.90
2019-04-05T05:16:47.973Z,90.60
2019-04-05T05:19:16.777Z,90.60
2019-04-05T05:21:45.696Z,91.20
2019-04-05T05:24:14.149Z,90.70
2019-04-05T05:26:42.709Z,90.40
2019-04-05T05:29:11.204Z,90.70
2019-04-05T05:31:39.701Z,90.70
2019-04-05T05:34:08.221Z,90.40
2019-04-05T05:36:36.646Z,90.20
2019-04-05T05:39:07.320Z,90.10
2019-04-05T05:41:35.886Z,89.30
2019-04-05T05:44:04.645Z,87.50
2019-04-05T05:46:33.166Z,88.60
2019-04-05T05:49:01.744Z,87.80
2019-04-05T05:51:30.924Z,87.30
2019-04-05T05:53:59.352Z,86.70
2019-04-05T05:56:27.855Z,86.60
2019-04-05T05:58:59.410Z,84.30
2019-04-05T06:01:26.814Z,82.50
2019-04-05T06:03:55.346Z,83.30
2019-04-05T06:06:23.776Z,76.20
2019-04-05T06:08:52.216Z,76.90
2019-04-05T06:11:20.735Z,81.70
2019-04-05T06:13:49.249Z,84.50
2019-04-05T06:16:17.667Z,87.00
2019-04-05T06:18:48.468Z,88.50
2019-04-05T06:21:16.266Z,87.60
2019-04-05T06:23:44.700Z,86.60
2019-04-05T06:26:13.141Z,87.20
2019-04-05T06:28:41.643Z,85.40
2019-04-05T06:31:10.173Z,83.00
2019-04-05T06:33:38.636Z,78.50
2019-04-05T06:36:07.272Z,78.10
2019-04-05T06:38:35.732Z,75.30
2019-04-05T06:41:04.232Z,76.50
2019-04-05T06:43:32.732Z,71.10
2019-04-05T06:46:01.255Z,68.70
2019-04-05T06:48:29.934Z,70.30
2019-04-05T06:50:58.459Z,68.70
2019-04-05T06:53:26.922Z,69.40
2019-04-05T06:55:55.356Z,55.10
2019-04-05T06:58:28.994Z,55.90
2019-04-05T07:00:57.392Z,67.10
2019-04-05T07:03:24.113Z,63.90
2019-04-05T07:05:52.566Z,57.30
2019-04-05T07:08:20.998Z,59.10
2019-04-05T07:10:49.459Z,61.40
2019-04-05T07:13:17.892Z,60.10
2019-04-05T07:15:46.347Z,58.80
2019-04-05T07:18:14.993Z,60.20
2019-04-05T07:20:43.429Z,61.50
2019-04-05T07:23:11.876Z,55.20
2019-04-05T07:25:40.300Z,55.90
2019-04-05T07:28:08.750Z,52.40
2019-04-05T07:30:37.177Z,54.60
2019-04-05T07:33:05.613Z,58.20
2019-04-05T07:35:34.293Z,53.70
2019-04-05T07:38:02.838Z,51.50
2019-04-05T07:40:31.365Z,46.60
2019-04-05T07:42:59.792Z,54.00
2019-04-05T07:45:28.317Z,55.30
2019-04-05T07:47:56.753Z,45.10
2019-04-05T07:50:25.252Z,48.90
2019-04-05T07:52:53.702Z,47.80
2019-04-05T07:55:22.131Z,43.70
2019-04-05T07:57:50.593Z,31.20
2019-04-05T08:00:24.876Z,36.70
2019-04-05T08:02:53.338Z,35.90
2019-04-05T08:05:21.768Z,31.90
2019-04-05T08:07:51.540Z,21.40
2019-04-05T08:10:22.139Z,27.50
2019-04-05T08:12:51.550Z,32.30
2019-04-05T08:15:19.996Z,24.30
2019-04-05T08:17:48.437Z,17.70
2019-04-05T08:20:16.868Z,20.10
2019-04-05T08:22:45.333Z,10.40
2019-04-05T08:25:13.766Z,10.10
2019-04-05T08:27:42.228Z,14.00
2019-04-05T08:30:10.832Z,25.90
2019-04-05T08:32:39.265Z,25.70
2019-04-05T08:35:07.849Z,25.30
2019-04-05T08:37:36.276Z,20.10
2019-04-05T08:40:06.544Z,11.30
2019-04-05T08:42:35.141Z,1.00
2019-04-05T08:45:04.838Z,10.60
2019-04-05T08:47:33.261Z,4.30
2019-04-05T08:50:01.733Z,1.00
2019-04-05T08:52:30.154Z,4.80
2019-04-05T08:54:58.585Z,1.00
2019-04-05T08:57:27.043Z,12.40
2019-04-05T08:59:55.485Z,7.90
2019-04-05T09:02:23.987Z,3.00
2019-04-05T09:04:52.433Z,1.00
2019-04-05T09:07:20.856Z,1.00
2019-04-05T09:09:49.276Z,1.00
2019-04-05T09:12:17.729Z,1.00
2019-04-05T09:14:46.148Z,1.00
2019-04-05T09:17:14.576Z,1.00
2019-04-05T09:19:43.033Z,1.00
2019-04-05T09:22:11.461Z,1.00
2019-04-05T09:24:39.877Z,1.00
2019-04-05T09:27:08.365Z,1.00
2019-04-05T09:29:36.810Z,1.00
2019-04-05T09:32:05.332Z,1.00
2019-04-05T09:34:33.813Z,1.00
2019-04-05T09:37:02.242Z,1.00
2019-04-05T09:39:30.693Z,1.00
2019-04-05T09:41:59.116Z,1.00
2019-04-05T09:44:27.565Z,1.00
2019-04-05T09:46:56.209Z,1.00
2019-04-05T09:49:36.028Z,1.00
2019-04-05T09:51:54.841Z,99.90
2019-04-05T09:54:23.260Z,1.00
2019-04-05T09:56:51.715Z,1.00
2019-04-05T09:59:20.206Z,1.00
2019-04-05T10:01:48.634Z,1.00
2019-04-05T10:04:17.116Z,99.90
2019-04-05T10:06:45.544Z,1.00
2019-04-05T10:09:14.271Z,1.00
2019-04-05T10:11:42.697Z,1.00
2019-04-05T10:14:11.114Z,1.00
2019-04-05T10:16:39.554Z,1.00
2019-04-05T10:19:07.978Z,1.00
2019-04-05T10:21:36.420Z,1.00
2019-04-05T10:24:05.522Z,1.00
2019-04-05T10:26:34.015Z,1.00
2019-04-05T10:29:02.469Z,1.00
2019-04-05T10:31:30.897Z,1.00
2019-04-05T10:33:59.348Z,1.00
2019-04-05T10:36:27.770Z,1.00
2019-04-05T10:38:56.205Z,1.00
2019-04-05T10:41:24.649Z,1.00
2019-04-05T10:43:53.072Z,1.00
2019-04-05T10:46:21.584Z,1.00
2019-04-05T10:48:50.010Z,1.00
2019-04-05T10:51:18.509Z,1.00
2019-04-05T10:53:46.944Z,1.00
2019-04-05T10:56:15.375Z,1.00
2019-04-05T10:58:43.869Z,1.00
2019-04-05T11:01:12.452Z,1.00
2019-04-05T11:03:40.868Z,1.00
2019-04-05T11:06:09.305Z,1.00
2019-04-05T11:08:37.777Z,1.00
2019-04-05T11:11:06.205Z,1.00
2019-04-05T11:13:34.629Z,1.00
2019-04-05T11:16:04.234Z,1.00
2019-04-05T11:18:33.551Z,1.00
2019-04-05T11:21:02.176Z,1.00
2019-04-05T11:23:30.665Z,1.00
2019-04-05T11:25:59.084Z,1.00
2019-04-05T11:28:27.537Z,1.00
2019-04-05T11:30:55.954Z,1.00
2019-04-05T11:33:24.475Z,1.00
2019-04-05T11:35:53.160Z,1.00
2019-04-05T11:38:24.274Z,1.00
2019-04-05T11:40:52.757Z,1.00
2019-04-05T11:43:26.224Z,1.00
2019-04-05T11:45:53.545Z,1.00
2019-04-05T11:48:22.033Z,1.00
2019-04-05T11:50:50.477Z,1.00
2019-04-05T11:53:21.896Z,1.00
2019-04-05T11:55:49.117Z,1.00
2019-04-05T11:58:17.560Z,1.00
2019-04-05T12:01:02.431Z,1.00
2019-04-05T12:03:32.340Z,1.00
2019-04-05T12:06:00.769Z,1.00
2019-04-05T12:08:29.185Z,1.00
2019-04-05T12:10:57.658Z,1.00
2019-04-05T12:13:26.076Z,1.00
2019-04-05T12:15:54.521Z,1.00
2019-04-05T12:18:22.982Z,1.00
2019-04-05T12:20:59.678Z,1.00
2019-04-05T12:23:21.656Z,1.00
2019-04-05T12:25:50.142Z,1.00
2019-04-05T12:28:18.585Z,1.00
2019-04-05T12:30:48.376Z,1.00
2019-04-05T12:33:19.103Z,1.00
2019-04-05T12:35:46.957Z,1.00
2019-04-05T12:38:28.136Z,1.00
2019-04-05T12:40:47.268Z,1.00
2019-04-05T12:43:15.689Z,1.00
2019-04-05T12:45:44.746Z,1.00
2019-04-05T12:48:16.080Z,1.00
2019-04-05T12:50:44.970Z,1.00
2019-04-05T12:53:13.964Z,1.00
2019-04-05T12:55:42.384Z,1.00
2019-04-05T12:58:10.829Z,1.00
2019-04-05T13:00:39.328Z,1.00
2019-04-05T13:03:07.771Z,1.00
2019-04-05T13:05:36.264Z,1.00
2019-04-05T13:08:05.002Z,1.00
2019-04-05T13:10:33.497Z,1.00
2019-04-05T13:13:02.077Z,1.00
2019-04-05T13:15:30.652Z,1.00
2019-04-05T13:18:01.217Z,1.00
2019-04-05T13:20:30.432Z,99.90
2019-04-05T13:23:02.524Z,1.00
2019-04-05T13:25:29.645Z,1.00
2019-04-05T13:27:58.150Z,1.00
2019-04-05T13:30:26.601Z,1.00
2019-04-05T13:32:55.092Z,1.00
2019-04-05T13:35:23.516Z,1.00
2019-04-05T13:37:51.932Z,1.00
2019-04-05T13:40:20.448Z,1.00
2019-04-05T13:42:48.865Z,1.00
2019-04-05T13:45:17.841Z,1.00
2019-04-05T13:47:46.296Z,1.00
2019-04-05T13:50:15.032Z,1.00
2019-04-05T13:52:43.457Z,1.00
2019-04-05T13:55:12.045Z,1.00
2019-04-05T13:57:41.192Z,1.00
2019-04-05T14:00:11.047Z,1.00
2019-04-05T14:02:39.569Z,1.00
2019-04-05T14:05:08.312Z,1.00
2019-04-05T14:07:36.748Z,1.00
2019-04-05T14:10:10.620Z,1.00
2019-04-05T14:12:37.668Z,1.00
2019-04-05T14:15:10.908Z,1.00
2019-04-05T14:17:38.676Z,1.00
2019-04-05T14:20:09.110Z,1.00
2019-04-05T14:22:37.863Z,1.00
2019-04-05T14:25:07.356Z,99.90
2019-04-05T14:27:35.773Z,1.00
2019-04-05T14:30:06.236Z,1.00
2019-04-05T14:32:35.049Z,1.00
2019-04-05T14:35:07.504Z,1.00
2019-04-05T14:37:34.996Z,1.00
2019-04-05T14:40:06.142Z,1.00
2019-04-05T14:42:34.561Z,1.00
2019-04-05T14:45:03.377Z,1.00
2019-04-05T14:47:31.802Z,1.00
2019-04-05T14:50:00.997Z,1.00
2019-04-05T14:52:31.229Z,1.00
2019-04-05T14:54:59.965Z,99.90
2019-04-05T14:57:29.269Z,99.90
2019-04-05T14:59:57.713Z,99.90
2019-04-05T15:02:26.169Z,99.90
2019-04-05T15:04:54.594Z,99.90
2019-04-05T15:07:23.053Z,99.90
2019-04-05T15:09:54.719Z,99.90
2019-04-05T15:12:21.717Z,99.90
2019-04-05T15:14:50.261Z,99.90
2019-04-05T15:17:18.716Z,99.90
2019-04-05T15:19:47.148Z,99.90
2019-04-05T15:22:15.604Z,1.00
2019-04-05T15:24:44.623Z,1.00
2019-04-05T15:27:14.169Z,1.00
2019-04-05T15:29:42.636Z,99.90
2019-04-05T15:32:11.061Z,1.00
2019-04-05T15:34:39.500Z,1.00
2019-04-05T15:37:07.920Z,1.00
2019-04-05T15:39:36.362Z,99.90
2019-04-05T15:42:04.941Z,99.90
2019-04-05T15:44:33.361Z,1.00
2019-04-05T15:47:01.808Z,99.90
2019-04-05T15:49:30.397Z,1.00
2019-04-05T15:51:59.073Z,1.00
2019-04-05T15:54:29.092Z,1.00
2019-04-05T15:56:57.754Z,99.90
2019-04-05T15:59:26.341Z,99.90
2019-04-05T16:01:54.829Z,99.90
2019-04-05T16:04:23.620Z,99.90
2019-04-05T16:06:52.137Z,1.00
2019-04-05T16:09:21.051Z,99.90
2019-04-05T16:11:52.279Z,99.90
2019-04-05T16:14:20.696Z,1.00
2019-04-05T16:16:50.336Z,1.00
2019-04-05T16:19:18.775Z,99.90
2019-04-05T16:21:47.217Z,99.90
2019-04-05T16:24:15.714Z,99.90
2019-04-05T16:26:44.142Z,99.90
2019-04-05T16:29:12.556Z,1.00
2019-04-05T16:31:41.019Z,99.90
2019-04-05T16:34:09.449Z,1.00
2019-04-05T16:36:37.914Z,1.00
2019-04-05T16:39:09.707Z,1.00
2019-04-05T16:41:38.133Z,1.00
2019-04-05T16:44:06.578Z,99.90
2019-04-05T16:46:35.001Z,99.90
2019-04-05T16:49:03.525Z,99.90
2019-04-05T16:51:31.973Z,99.90
2019-04-05T16:54:03.877Z,99.90
2019-04-05T16:56:32.473Z,99.90
2019-04-05T16:59:01.066Z,99.90
2019-04-05T17:01:30.219Z,99.90
2019-04-05T17:03:58.699Z,1.00
2019-04-05T17:06:27.330Z,1.00
2019-04-05T17:08:55.792Z,1.00
2019-04-05T17:11:24.303Z,1.00
2019-04-05T17:13:52.781Z,1.00
2019-04-05T17:16:21.387Z,1.00
2019-04-05T17:18:49.907Z,1.00
2019-04-05T17:21:18.491Z,1.00
2019-04-05T17:23:47.031Z,1.00
2019-04-05T17:26:15.669Z,1.00
2019-04-05T17:28:44.188Z,1.00
2019-04-05T17:31:12.870Z,1.00
2019-04-05T17:33:41.408Z,1.00
2019-04-05T17:36:10.030Z,1.00
2019-04-05T17:38:38.812Z,1.00
2019-04-05T17:41:07.342Z,1.00
2019-04-05T17:43:36.020Z,1.00
2019-04-05T17:46:04.663Z,1.00
2019-04-05T17:48:33.216Z,1.00
2019-04-05T17:51:02.065Z,1.00
2019-04-05T17:53:30.679Z,1.00
2019-04-05T17:55:59.504Z,1.00
2019-04-05T17:58:28.510Z,1.00
2019-04-05T18:00:57.226Z,1.00
2019-04-05T18:03:25.975Z,1.00
2019-04-05T18:05:54.700Z,1.00
2019-04-05T18:08:23.385Z,1.00
2019-04-05T18:10:52.188Z,1.00
2019-04-05T18:13:20.829Z,1.00
2019-04-05T18:15:52.690Z,1.00
2019-04-05T18:18:19.876Z,1.00
2019-04-05T18:20:48.551Z,1.00
2019-04-05T18:23:25.083Z,1.00
2019-04-05T18:25:47.562Z,1.00
2019-04-05T18:28:16.346Z,1.00
2019-04-05T18:30:45.132Z,1.00
2019-04-05T18:33:13.922Z,1.00
2019-04-05T18:35:43.136Z,1.00
2019-04-05T18:38:12.009Z,1.00
2019-04-05T18:40:40.805Z,1.00
2019-04-05T18:43:09.687Z,1.00
2019-04-05T18:45:38.576Z,1.00
2019-04-05T18:48:07.385Z,1.00
2019-04-05T18:50:36.165Z,1.00
2019-04-05T18:53:05.060Z,1.00
2019-04-05T18:55:33.932Z,1.00
2019-04-05T18:58:02.834Z,1.00
2019-04-05T19:00:31.718Z,1.00
2019-04-05T19:03:00.603Z,1.00
2019-04-05T19:05:29.544Z,1.00
2019-04-05T19:07:58.485Z,1.00
2019-04-05T19:10:36.940Z,1.00
2019-04-05T19:12:59.480Z,1.00
2019-04-05T19:15:28.768Z,1.00
2019-04-05T19:17:57.550Z,1.00
2019-04-05T19:20:26.517Z,1.00
2019-04-05T19:22:55.407Z,1.00
2019-04-05T19:25:24.408Z,1.00
2019-04-05T19:27:53.291Z,1.00
2019-04-05T19:50:25.587Z,1.00
2019-04-05T19:52:54.374Z,1.00
2019-04-05T19:55:23.367Z,1.00
2019-04-05T19:57:52.257Z,1.00
2019-04-05T20:00:21.267Z,1.00
2019-04-05T20:02:50.247Z,1.00
2019-04-05T20:05:19.132Z,1.00
2019-04-05T20:07:48.124Z,1.00
2019-04-05T20:10:17.016Z,1.00
2019-04-05T20:12:46.006Z,1.00
2019-04-05T20:15:15.101Z,1.00
2019-04-05T20:17:43.991Z,1.00
2019-04-05T20:20:13.721Z,1.00
2019-04-05T20:22:42.471Z,1.00
2019-04-05T20:25:11.481Z,4.60
2019-04-05T20:27:40.370Z,7.60
2019-04-05T20:30:09.957Z,7.90
2019-04-05T20:32:38.764Z,3.10
2019-04-05T20:35:07.891Z,1.00
2019-04-05T20:37:36.874Z,1.00
2019-04-05T20:40:07.431Z,1.00
2019-04-05T20:42:36.248Z,1.00
2019-04-05T20:45:05.570Z,1.00
2019-04-05T20:47:34.358Z,1.00
2019-04-05T20:50:03.260Z,1.80
2019-04-05T20:52:32.139Z,2.20
2019-04-05T20:55:01.030Z,1.60
2019-04-05T20:57:29.816Z,2.70
2019-04-05T20:59:58.508Z,2.60
2019-04-05T21:02:27.389Z,4.00
2019-04-05T21:04:56.138Z,7.20
2019-04-05T21:07:24.730Z,8.30
2019-04-05T21:09:53.368Z,9.80
2019-04-05T21:12:22.574Z,12.40
2019-04-05T21:14:51.098Z,15.10
2019-04-05T21:17:19.539Z,14.40
2019-04-05T21:19:48.036Z,15.50
2019-04-05T21:22:16.707Z,18.00
2019-04-05T21:24:45.136Z,23.20
2019-04-05T21:27:13.576Z,26.50
2019-04-05T21:29:42.004Z,28.20
2019-04-05T21:32:10.548Z,29.60
2019-04-05T21:34:38.972Z,29.70
2019-04-05T21:37:07.484Z,28.70
2019-04-05T21:39:35.946Z,28.90
2019-04-05T21:42:04.652Z,30.00
2019-04-05T21:44:33.109Z,29.00
2019-04-05T21:47:01.612Z,29.40
2019-04-05T21:49:30.042Z,32.00
2019-04-05T21:51:58.480Z,33.40
2019-04-05T21:54:26.911Z,36.60
2019-04-05T21:56:55.356Z,37.20
2019-04-05T21:59:23.784Z,38.50
2019-04-05T22:01:55.265Z,36.00
2019-04-05T22:04:23.705Z,38.60
2019-04-05T22:06:55.005Z,37.00
2019-04-05T22:09:23.463Z,37.20
2019-04-05T22:11:51.896Z,37.00
2019-04-05T22:14:20.325Z,37.50
2019-04-05T22:16:48.848Z,39.40
2019-04-05T22:19:17.280Z,45.60
2019-04-05T22:21:45.725Z,53.80
2019-04-05T22:24:14.248Z,55.10
2019-04-05T22:26:42.676Z,55.60
2019-04-05T22:29:11.247Z,54.10
2019-04-05T22:31:39.775Z,56.60
2019-04-05T22:34:08.263Z,58.40
2019-04-05T22:36:36.693Z,56.90
2019-04-05T22:39:06.756Z,55.10
2019-04-05T22:41:35.212Z,55.10
2019-04-05T22:44:03.710Z,55.60
2019-04-05T22:46:32.144Z,54.70
2019-04-05T22:49:00.613Z,55.70
2019-04-05T22:51:29.027Z,54.00
2019-04-05T22:53:57.453Z,56.20
2019-04-05T22:56:25.965Z,57.70
2019-04-05T22:58:54.464Z,55.00
2019-04-05T23:01:22.884Z,57.60
2019-04-05T23:03:51.387Z,56.50
2019-04-05T23:06:19.852Z,57.60
2019-04-05T23:08:48.282Z,56.30
2019-04-05T23:11:16.744Z,55.10
2019-04-05T23:13:45.241Z,54.40
2019-04-05T23:16:13.672Z,57.80
2019-04-05T23:18:42.125Z,65.50
2019-04-05T23:21:10.574Z,71.10
2019-04-05T23:23:39.057Z,74.60
2019-04-05T23:26:07.506Z,73.40
2019-04-05T23:28:35.937Z,74.60
2019-04-05T23:31:04.460Z,72.30
2019-04-05T23:33:32.944Z,72.70
2019-04-05T23:36:01.374Z,76.10
2019-04-05T23:38:29.985Z,75.80
2019-04-05T23:40:58.426Z,73.70
2019-04-05T23:43:26.945Z,70.90
2019-04-05T23:45:55.376Z,69.70
2019-04-05T23:48:23.840Z,69.00
2019-04-05T23:50:52.422Z,68.80
2019-04-05T23:53:21.105Z,69.60
2019-04-05T23:55:49.562Z,69.90
2019-04-05T23:58:17.980Z,69.60
